Daisetta, Texas
Current Conditions -  °F | °C
As of 8:15 PM on Monday 22 Dec 2014 (Local Time) from KBMT Reporting Station
Clear Clear  
Wind Chill: 63°   Ceiling: Unl
Heat Index: 63°   Visibility: 10mi
Dew Point: 60°   Wind: 13mph
Humidity: 93%   Direction: 210°SSW
Pressure: 29.66"   Gusts: 21mph
Location:  30.11°N, 94.64°W
Report Text: KBMT 230215Z AUTO 21011G18KT 10SM CLR 17/16 A2966 RMK AO2 T01700158
Loading
Personal Weather Stations






























Interactive Weather Map New forecast layout! Learn more

10-Day Weather Forecast

Advertisements
Track Severe Weather on mobile